createdAt,value
2022-09-06T00:01:26.146Z,18.86
2022-09-06T00:03:53.350Z,19.00
2022-09-06T00:06:20.586Z,18.93
2022-09-06T00:08:48.328Z,18.93
2022-09-06T00:11:16.368Z,18.78
2022-09-06T00:13:43.962Z,18.83
2022-09-06T00:16:17.439Z,18.65
2022-09-06T00:18:44.831Z,18.51
2022-09-06T00:21:17.779Z,18.46
2022-09-06T00:23:45.026Z,18.45
2022-09-06T00:26:12.273Z,18.38
2022-09-06T00:28:39.506Z,18.29
2022-09-06T00:31:17.578Z,18.22
2022-09-06T00:33:44.625Z,18.22
2022-09-06T00:36:12.961Z,18.18
2022-09-06T00:38:40.756Z,18.08
2022-09-06T00:41:08.996Z,18.02
2022-09-06T00:43:36.251Z,17.98
2022-09-06T00:46:07.459Z,17.94
2022-09-06T00:48:35.377Z,17.89
2022-09-06T00:51:04.304Z,17.85
2022-09-06T00:53:34.352Z,17.95
2022-09-06T00:56:04.247Z,18.01
2022-09-06T00:58:35.042Z,18.08
2022-09-06T01:01:02.617Z,18.07
2022-09-06T01:03:29.548Z,18.15
2022-09-06T01:06:24.576Z,18.05
2022-09-06T01:09:13.540Z,18.02
2022-09-06T01:11:53.806Z,17.98
2022-09-06T01:14:32.815Z,18.03
2022-09-06T01:17:11.376Z,18.17
2022-09-06T01:20:15.846Z,18.15
2022-09-06T01:23:01.447Z,18.10
2022-09-06T01:25:39.036Z,18.15
2022-09-06T01:28:39.643Z,18.15
2022-09-06T01:31:11.621Z,18.10
2022-09-06T01:33:48.823Z,18.02
2022-09-06T01:36:19.476Z,18.03
2022-09-06T01:38:46.550Z,18.02
2022-09-06T01:41:13.444Z,17.78
2022-09-06T01:43:43.035Z,17.60
2022-09-06T01:46:15.645Z,17.51
2022-09-06T01:49:15.088Z,17.43
2022-09-06T01:52:22.028Z,17.33
2022-09-06T01:55:17.099Z,17.40
2022-09-06T01:57:50.265Z,17.38
2022-09-06T02:00:22.533Z,17.36
2022-09-06T02:02:52.987Z,17.34
2022-09-06T02:05:31.174Z,17.32
2022-09-06T02:08:01.930Z,17.25
2022-09-06T02:10:34.818Z,17.28
2022-09-06T02:13:02.502Z,17.16
2022-09-06T02:15:34.455Z,17.17
2022-09-06T02:18:05.999Z,17.14
2022-09-06T02:20:35.394Z,17.11
2022-09-06T02:23:04.507Z,17.10
2022-09-06T02:25:38.867Z,17.12
2022-09-06T02:28:08.034Z,17.12
2022-09-06T02:30:38.520Z,16.92
2022-09-06T02:33:14.166Z,16.98
2022-09-06T02:35:46.779Z,16.89
2022-09-06T02:38:14.311Z,16.90
2022-09-06T02:40:41.259Z,16.89
2022-09-06T02:43:08.549Z,16.91
2022-09-06T02:45:35.687Z,16.87
2022-09-06T02:48:02.674Z,16.95
2022-09-06T02:50:29.615Z,16.91
2022-09-06T02:53:05.821Z,16.97
2022-09-06T02:55:32.885Z,16.99
2022-09-06T02:58:00.024Z,16.87
2022-09-06T03:00:27.179Z,16.97
2022-09-06T03:02:54.020Z,16.90
2022-09-06T03:05:21.548Z,16.80
2022-09-06T03:07:48.999Z,16.72
2022-09-06T03:10:15.980Z,16.66
2022-09-06T03:12:43.988Z,16.65
2022-09-06T03:15:12.435Z,16.84
2022-09-06T03:17:39.375Z,16.75
2022-09-06T03:20:07.356Z,16.75
2022-09-06T03:22:34.194Z,16.80
2022-09-06T03:25:01.107Z,16.76
2022-09-06T03:27:28.243Z,16.74
2022-09-06T03:29:55.080Z,16.56
2022-09-06T03:32:21.999Z,16.70
2022-09-06T03:34:49.084Z,16.53
2022-09-06T03:37:15.968Z,16.59
2022-09-06T03:39:43.325Z,16.57
2022-09-06T03:42:10.438Z,16.52
2022-09-06T03:44:37.315Z,16.64
2022-09-06T03:47:04.343Z,16.52
2022-09-06T03:49:31.416Z,16.46
2022-09-06T03:51:58.264Z,16.53
2022-09-06T03:54:25.099Z,16.61
2022-09-06T03:56:52.200Z,16.60
2022-09-06T03:59:19.045Z,16.56
2022-09-06T04:01:45.878Z,16.62
2022-09-06T04:04:12.965Z,16.51
2022-09-06T04:06:39.819Z,16.38
2022-09-06T04:09:06.924Z,16.34
2022-09-06T04:11:34.046Z,16.37
2022-09-06T04:14:00.948Z,16.36
2022-09-06T04:16:27.813Z,16.34
2022-09-06T04:18:55.068Z,16.32
2022-09-06T04:21:21.896Z,16.35
2022-09-06T04:23:48.829Z,16.36
2022-09-06T04:26:15.974Z,16.38
2022-09-06T04:28:42.824Z,16.31
2022-09-06T04:31:09.677Z,16.38
2022-09-06T04:33:38.226Z,16.32
2022-09-06T04:36:08.333Z,16.43
2022-09-06T04:38:37.626Z,16.37
2022-09-06T04:41:05.154Z,16.43
2022-09-06T04:43:32.152Z,16.43
2022-09-06T04:46:25.131Z,16.43
2022-09-06T04:48:53.554Z,16.45
2022-09-06T04:51:20.783Z,16.38
2022-09-06T04:53:47.742Z,16.36
2022-09-06T04:56:17.369Z,16.65
2022-09-06T04:58:45.771Z,16.62
2022-09-06T05:01:12.800Z,16.62
2022-09-06T05:03:39.891Z,16.54
2022-09-06T05:06:12.300Z,16.54
2022-09-06T05:08:40.475Z,16.64
2022-09-06T05:11:08.896Z,16.72
2022-09-06T05:13:35.775Z,16.97
2022-09-06T05:16:07.234Z,16.94
2022-09-06T05:18:34.178Z,17.02
2022-09-06T05:21:04.158Z,17.10
2022-09-06T05:23:34.409Z,17.23
2022-09-06T05:26:05.029Z,17.24
2022-09-06T05:28:35.224Z,17.14
2022-09-06T05:31:07.222Z,17.28
2022-09-06T05:33:34.295Z,17.48
2022-09-06T05:36:05.375Z,17.44
2022-09-06T05:38:35.336Z,17.67
2022-09-06T05:41:05.285Z,17.69
2022-09-06T05:43:35.003Z,17.61
2022-09-06T05:46:05.056Z,17.89
2022-09-06T05:48:36.594Z,17.96
2022-09-06T05:51:07.025Z,17.95
2022-09-06T05:53:37.995Z,18.00
2022-09-06T05:56:05.670Z,18.08
2022-09-06T05:58:32.658Z,18.18
2022-09-06T06:01:30.142Z,18.37
2022-09-06T06:04:07.926Z,18.36
2022-09-06T06:06:34.933Z,19.80
2022-09-06T06:09:02.082Z,21.74
2022-09-06T06:11:31.044Z,23.02
2022-09-06T06:13:58.995Z,23.05
2022-09-06T06:16:26.246Z,23.12
2022-09-06T06:18:53.210Z,24.87
2022-09-06T06:21:24.595Z,24.59
2022-09-06T06:23:53.755Z,25.17
2022-09-06T06:26:21.087Z,25.11
2022-09-06T06:28:49.020Z,24.74
2022-09-06T06:31:16.566Z,24.22
2022-09-06T06:33:44.299Z,24.29
2022-09-06T06:36:14.014Z,25.22
2022-09-06T06:38:42.954Z,25.95
2022-09-06T06:41:12.716Z,27.60
2022-09-06T06:43:39.687Z,26.16
2022-09-06T06:46:09.277Z,26.84
2022-09-06T06:48:37.483Z,26.42
2022-09-06T06:51:04.409Z,26.45
2022-09-06T06:53:32.803Z,25.45
2022-09-06T06:56:01.440Z,25.27
2022-09-06T06:58:28.584Z,24.27
2022-09-06T07:00:56.033Z,25.86
2022-09-06T07:03:23.018Z,25.67
2022-09-06T07:08:40.055Z,26.49
2022-09-06T07:11:08.129Z,26.17
2022-09-06T07:13:35.029Z,28.10
2022-09-06T07:16:12.502Z,26.50
2022-09-06T07:18:42.187Z,27.34
2022-09-06T07:24:06.450Z,27.41
2022-09-06T07:26:34.985Z,27.12
2022-09-06T07:29:03.676Z,28.18
2022-09-06T07:34:20.559Z,28.43
2022-09-06T07:36:48.278Z,28.28
2022-09-06T07:39:15.472Z,28.03
2022-09-06T07:41:43.231Z,28.76
2022-09-06T07:44:10.431Z,29.22
2022-09-06T07:46:38.044Z,28.56
2022-09-06T07:49:05.901Z,28.67
2022-09-06T07:51:33.235Z,27.52
2022-09-06T07:54:34.704Z,26.06
2022-09-06T07:56:48.040Z,27.07
2022-09-06T07:59:15.098Z,28.29
2022-09-06T08:01:42.593Z,28.90
2022-09-06T08:04:12.805Z,28.62
2022-09-06T08:09:30.082Z,28.95
2022-09-06T08:11:56.968Z,28.66
2022-09-06T08:14:23.882Z,29.10
2022-09-06T08:16:51.051Z,28.61
2022-09-06T08:19:18.446Z,29.22
2022-09-06T08:21:45.486Z,28.23
2022-09-06T08:24:12.687Z,28.34
2022-09-06T08:26:40.759Z,28.02
2022-09-06T08:29:08.874Z,28.83
2022-09-06T08:31:38.600Z,28.52
2022-09-06T08:34:05.601Z,25.90
2022-09-06T08:36:33.077Z,25.84
2022-09-06T08:39:02.038Z,26.98
2022-09-06T08:41:38.063Z,26.81
2022-09-06T08:46:58.355Z,27.83
2022-09-06T08:49:54.723Z,27.96
2022-09-06T08:52:54.479Z,26.85
2022-09-06T08:55:36.714Z,26.22
2022-09-06T08:58:27.806Z,26.61
2022-09-06T09:00:59.355Z,26.49
2022-09-06T09:03:36.589Z,26.11
2022-09-06T09:06:10.045Z,25.66
2022-09-06T09:08:41.475Z,25.94
2022-09-06T09:11:18.693Z,26.40
2022-09-06T09:13:55.618Z,27.05
2022-09-06T09:16:23.717Z,27.50
2022-09-06T09:18:56.138Z,27.06
2022-09-06T09:21:30.363Z,27.19
2022-09-06T09:23:59.438Z,26.90
2022-09-06T09:26:28.768Z,27.38
2022-09-06T09:29:06.957Z,26.76
2022-09-06T09:31:39.830Z,27.14
2022-09-06T09:34:12.404Z,28.33
2022-09-06T09:36:40.048Z,29.37
2022-09-06T09:39:11.287Z,28.86
2022-09-06T09:41:41.135Z,28.54
2022-09-06T09:44:17.297Z,30.01
2022-09-06T09:46:44.374Z,29.78
2022-09-06T09:49:13.986Z,30.09
2022-09-06T09:51:45.016Z,28.91
2022-09-06T09:54:14.381Z,28.51
2022-09-06T09:56:46.983Z,26.92
2022-09-06T09:59:23.203Z,26.86
2022-09-06T10:01:52.905Z,26.67
2022-09-06T10:04:47.737Z,26.60
2022-09-06T10:07:17.619Z,26.84
2022-09-06T10:10:01.910Z,26.97
2022-09-06T10:12:32.935Z,26.89
2022-09-06T10:15:04.920Z,26.49
2022-09-06T10:17:34.959Z,26.45
2022-09-06T10:20:08.607Z,26.87
2022-09-06T10:22:44.111Z,26.85
2022-09-06T10:25:20.357Z,27.14
2022-09-06T10:28:11.484Z,27.53
2022-09-06T10:31:09.160Z,27.74
2022-09-06T10:33:51.155Z,27.19
2022-09-06T10:36:21.295Z,27.31
2022-09-06T10:38:54.917Z,27.36
2022-09-06T10:41:33.494Z,27.16
2022-09-06T10:44:09.342Z,27.24
2022-09-06T10:46:38.191Z,27.07
2022-09-06T10:49:09.467Z,27.23
2022-09-06T10:51:39.949Z,27.32
2022-09-06T10:54:09.728Z,26.75
2022-09-06T10:56:50.798Z,26.87
2022-09-06T10:59:50.256Z,27.04
2022-09-06T11:02:38.004Z,27.20
2022-09-06T11:11:03.512Z,27.97
2022-09-06T11:13:32.774Z,27.65
2022-09-06T11:16:07.989Z,27.55
2022-09-06T11:18:38.071Z,27.81
2022-09-06T11:21:20.277Z,27.82
2022-09-06T11:23:59.634Z,27.96
2022-09-06T11:26:34.990Z,27.56
2022-09-06T11:29:09.240Z,27.57
2022-09-06T11:34:51.873Z,27.15
2022-09-06T11:37:26.454Z,27.29
2022-09-06T11:42:54.417Z,27.47
2022-09-06T11:45:39.799Z,27.42
2022-09-06T11:48:26.847Z,27.88
2022-09-06T11:50:53.919Z,28.24
2022-09-06T11:53:22.931Z,28.29
2022-09-06T11:56:10.045Z,28.62
2022-09-06T11:58:39.821Z,28.45
2022-09-06T12:01:13.104Z,28.30
2022-09-06T12:06:38.916Z,28.79
2022-09-06T12:09:29.085Z,28.95
2022-09-06T12:11:56.870Z,28.63
2022-09-06T12:14:34.520Z,28.70
2022-09-06T12:17:01.491Z,28.66
2022-09-06T12:19:52.327Z,28.55
2022-09-06T12:22:32.765Z,28.53
2022-09-06T12:25:10.547Z,28.42
2022-09-06T12:28:01.584Z,28.51
2022-09-06T12:30:42.308Z,28.32
2022-09-06T12:33:24.319Z,28.29
2022-09-06T12:38:25.798Z,28.18
2022-09-06T12:40:58.477Z,28.30
2022-09-06T12:43:26.070Z,28.24
2022-09-06T12:45:53.533Z,27.98
2022-09-06T12:48:29.445Z,27.89
2022-09-06T12:51:16.209Z,27.68
2022-09-06T12:54:01.517Z,27.61
2022-09-06T12:56:30.385Z,27.46
2022-09-06T12:59:14.321Z,27.70
2022-09-06T13:01:46.038Z,27.68
2022-09-06T13:04:25.017Z,27.69
2022-09-06T13:06:52.384Z,27.79
2022-09-06T13:09:20.516Z,27.94
2022-09-06T13:11:53.715Z,28.13
2022-09-06T13:14:26.325Z,28.39
2022-09-06T13:16:56.812Z,28.49
2022-09-06T13:19:38.321Z,28.62
2022-09-06T13:22:11.194Z,28.86
2022-09-06T13:24:47.070Z,29.32
2022-09-06T13:27:34.585Z,29.60
2022-09-06T13:30:10.848Z,29.52
2022-09-06T13:32:46.529Z,29.26
2022-09-06T13:35:23.842Z,29.36
2022-09-06T13:37:50.992Z,29.51
2022-09-06T13:41:06.469Z,29.70
2022-09-06T13:43:33.454Z,30.01
2022-09-06T13:46:09.006Z,29.77
2022-09-06T13:48:44.649Z,29.66
2022-09-06T13:51:12.137Z,29.81
2022-09-06T13:53:39.055Z,29.77
2022-09-06T13:56:08.690Z,29.60
2022-09-06T13:58:36.614Z,29.63
2022-09-06T14:01:08.489Z,29.37
2022-09-06T14:03:38.152Z,29.38
2022-09-06T14:06:05.239Z,29.25
2022-09-06T14:09:02.894Z,29.00
2022-09-06T14:11:24.954Z,29.05
2022-09-06T14:13:51.852Z,29.03
2022-09-06T14:16:18.880Z,28.72
2022-09-06T14:18:46.322Z,28.71
2022-09-06T14:21:13.446Z,28.45
2022-09-06T14:23:40.501Z,28.60
2022-09-06T14:26:07.703Z,28.55
2022-09-06T14:28:37.675Z,28.50
2022-09-06T14:31:19.049Z,28.43
2022-09-06T14:33:46.517Z,28.10
2022-09-06T14:36:18.860Z,27.90
2022-09-06T14:38:46.218Z,27.79
2022-09-06T14:41:14.588Z,27.74
2022-09-06T14:43:47.827Z,27.72
2022-09-06T14:46:16.001Z,27.65
2022-09-06T14:48:43.136Z,27.68
2022-09-06T14:51:13.783Z,27.68
2022-09-06T14:53:41.991Z,27.46
2022-09-06T14:56:10.189Z,27.43
2022-09-06T14:58:38.385Z,27.22
2022-09-06T15:01:14.429Z,26.76
2022-09-06T15:03:43.526Z,26.97
2022-09-06T15:06:10.973Z,26.68
2022-09-06T15:08:38.387Z,26.57
2022-09-06T15:11:07.984Z,26.44
2022-09-06T15:13:37.141Z,26.53
2022-09-06T15:16:08.453Z,25.82
2022-09-06T15:18:35.883Z,24.12
2022-09-06T15:21:10.930Z,23.06
2022-09-06T15:23:39.743Z,21.99
2022-09-06T15:26:08.645Z,21.45
2022-09-06T15:28:37.150Z,21.14
2022-09-06T15:31:08.373Z,20.44
2022-09-06T15:33:38.721Z,20.23
2022-09-06T15:36:07.169Z,20.28
2022-09-06T15:38:41.125Z,20.18
2022-09-06T15:41:13.228Z,20.28
2022-09-06T15:43:42.913Z,20.53
2022-09-06T15:46:10.176Z,20.05
2022-09-06T15:49:06.057Z,19.74
2022-09-06T15:51:35.197Z,19.58
2022-09-06T15:54:02.149Z,19.66
2022-09-06T15:56:29.076Z,19.70
2022-09-06T15:58:56.290Z,19.66
2022-09-06T16:01:25.289Z,19.61
2022-09-06T16:04:03.801Z,19.80
2022-09-06T16:06:35.986Z,20.13
2022-09-06T16:09:08.603Z,20.32
2022-09-06T16:11:36.821Z,20.72
2022-09-06T16:14:06.148Z,20.92
2022-09-06T16:16:34.514Z,20.98
2022-09-06T16:19:01.813Z,21.19
2022-09-06T16:21:32.164Z,21.22
2022-09-06T16:24:01.796Z,21.17
2022-09-06T16:26:34.123Z,20.72
2022-09-06T16:29:01.670Z,20.62
2022-09-06T16:31:29.750Z,20.90
2022-09-06T16:33:57.830Z,20.90
2022-09-06T16:36:25.439Z,20.75
2022-09-06T16:38:53.120Z,20.72
2022-09-06T16:41:37.373Z,20.86
2022-09-06T16:44:04.587Z,20.39
2022-09-06T16:46:31.596Z,20.49
2022-09-06T16:49:04.390Z,20.47
2022-09-06T16:51:31.842Z,20.19
2022-09-06T16:53:59.672Z,20.09
2022-09-06T16:56:31.722Z,20.10
2022-09-06T16:59:01.213Z,20.16
2022-09-06T17:01:29.806Z,20.18
2022-09-06T17:03:57.433Z,20.32
2022-09-06T17:06:24.887Z,20.40
2022-09-06T17:08:52.121Z,20.45
2022-09-06T17:11:21.579Z,20.42
2022-09-06T17:13:50.195Z,20.25
2022-09-06T17:16:38.989Z,20.27
2022-09-06T17:19:07.022Z,20.23
2022-09-06T17:21:34.214Z,20.17
2022-09-06T17:24:04.589Z,20.21
2022-09-06T17:26:34.098Z,20.28
2022-09-06T17:29:01.007Z,20.30
2022-09-06T17:31:28.361Z,20.27
2022-09-06T17:33:55.895Z,20.20
2022-09-06T17:36:25.086Z,20.19
2022-09-06T17:38:53.663Z,20.42
2022-09-06T17:41:24.272Z,20.38
2022-09-06T17:43:52.864Z,20.59
2022-09-06T17:46:20.281Z,20.58
2022-09-06T17:48:47.511Z,20.52
2022-09-06T17:51:14.496Z,20.51
2022-09-06T17:53:43.865Z,20.40
2022-09-06T17:56:12.346Z,20.39
2022-09-06T17:58:40.457Z,20.29
2022-09-06T18:01:09.853Z,20.06
2022-09-06T18:03:39.359Z,19.98
2022-09-06T18:06:10.706Z,19.80
2022-09-06T18:08:40.142Z,19.81
2022-09-06T18:11:12.331Z,19.90
2022-09-06T18:13:40.011Z,19.71
2022-09-06T18:16:06.951Z,19.91
2022-09-06T18:18:34.898Z,20.30
2022-09-06T18:21:03.697Z,20.32
2022-09-06T18:23:33.668Z,20.35
2022-09-06T18:26:11.867Z,20.35
2022-09-06T18:28:39.091Z,20.37
2022-09-06T18:31:08.688Z,20.48
2022-09-06T18:33:36.220Z,20.57
2022-09-06T18:36:07.441Z,20.55
2022-09-06T18:38:39.094Z,20.75
2022-09-06T18:41:08.260Z,20.75
2022-09-06T18:43:39.960Z,20.32
2022-09-06T18:46:09.526Z,19.95
2022-09-06T18:48:37.521Z,19.61
2022-09-06T18:51:12.985Z,19.60
2022-09-06T18:53:44.800Z,19.47
2022-09-06T18:56:13.222Z,19.38
2022-09-06T18:58:41.282Z,19.15
2022-09-06T19:01:10.391Z,19.18
2022-09-06T19:03:38.127Z,19.23
2022-09-06T19:06:13.903Z,19.24
2022-09-06T19:08:41.143Z,19.26
2022-09-06T19:11:10.418Z,19.25
2022-09-06T19:13:39.473Z,19.24
2022-09-06T19:16:06.986Z,19.39
2022-09-06T19:18:34.925Z,19.35
2022-09-06T19:21:10.215Z,19.36
2022-09-06T19:23:39.999Z,19.30
2022-09-06T19:26:14.560Z,19.24
2022-09-06T19:28:41.757Z,19.24
2022-09-06T19:31:18.649Z,19.09
2022-09-06T19:33:48.231Z,19.00
2022-09-06T19:36:16.515Z,18.85
2022-09-06T19:41:32.073Z,18.87
2022-09-06T19:43:59.269Z,19.03
2022-09-06T19:46:26.798Z,19.06
2022-09-06T19:48:56.041Z,19.11
2022-09-06T19:51:24.249Z,19.09
2022-09-06T19:54:02.009Z,19.09
2022-09-06T19:56:33.275Z,18.99
2022-09-06T19:59:02.100Z,18.92
2022-09-06T20:01:31.444Z,18.97
2022-09-06T20:04:00.036Z,18.98
2022-09-06T20:06:27.323Z,18.96
2022-09-06T20:08:56.490Z,18.95
2022-09-06T20:11:26.203Z,19.03
2022-09-06T20:13:53.136Z,19.03
2022-09-06T20:16:42.307Z,18.93
2022-09-06T20:19:11.127Z,19.02
2022-09-06T20:21:38.070Z,18.91
2022-09-06T20:24:05.056Z,18.75
2022-09-06T20:26:32.253Z,18.85
2022-09-06T20:29:01.166Z,18.77
2022-09-06T20:31:29.563Z,18.69
2022-09-06T20:33:59.050Z,18.61
2022-09-06T20:36:26.067Z,18.60
2022-09-06T20:38:53.026Z,18.45
2022-09-06T20:41:22.787Z,18.38
2022-09-06T20:43:54.310Z,18.36
2022-09-06T20:46:24.063Z,18.36
2022-09-06T20:48:51.953Z,18.48
2022-09-06T20:51:21.061Z,18.47
2022-09-06T20:54:06.716Z,18.41
2022-09-06T20:56:37.219Z,18.53
2022-09-06T20:59:07.251Z,18.66
2022-09-06T21:01:37.177Z,18.52
2022-09-06T21:04:06.734Z,18.43
2022-09-06T21:06:35.692Z,18.33
2022-09-06T21:09:04.999Z,18.26
2022-09-06T21:11:32.402Z,18.29
2022-09-06T21:13:59.386Z,18.43
2022-09-06T21:16:28.334Z,18.60
2022-09-06T21:18:57.252Z,18.42
2022-09-06T21:21:25.488Z,18.41
2022-09-06T21:24:01.492Z,18.28
2022-09-06T21:26:29.054Z,18.31
2022-09-06T21:28:56.207Z,18.15
2022-09-06T21:31:25.391Z,18.21
2022-09-06T21:33:54.976Z,18.20
2022-09-06T21:36:31.030Z,18.19
2022-09-06T21:39:00.125Z,18.13
2022-09-06T21:41:28.186Z,18.06
2022-09-06T21:43:57.283Z,17.99
2022-09-06T21:46:31.757Z,17.96
2022-09-06T21:49:10.964Z,18.04
2022-09-06T21:51:38.691Z,17.95
2022-09-06T21:54:06.791Z,17.93
2022-09-06T21:56:35.901Z,17.92
2022-09-06T21:59:03.818Z,18.08
2022-09-06T22:01:32.723Z,18.04
2022-09-06T22:04:00.383Z,17.97
2022-09-06T22:06:29.922Z,18.09
2022-09-06T22:08:58.761Z,18.08
2022-09-06T22:11:28.018Z,18.12
2022-09-06T22:13:58.586Z,18.06
2022-09-06T22:16:26.804Z,17.95
2022-09-06T22:18:53.928Z,17.93
2022-09-06T22:21:21.631Z,17.95
2022-09-06T22:24:21.293Z,17.95
2022-09-06T22:26:48.203Z,17.97
2022-09-06T22:29:16.659Z,17.97
2022-09-06T22:31:43.715Z,18.03
2022-09-06T22:34:10.901Z,18.07
2022-09-06T22:36:38.580Z,17.98
2022-09-06T22:39:06.387Z,18.02
2022-09-06T22:41:34.109Z,17.95
2022-09-06T22:44:02.265Z,17.89
2022-09-06T22:46:29.247Z,17.83
2022-09-06T22:48:56.203Z,17.66
2022-09-06T22:51:23.414Z,17.60
2022-09-06T22:53:50.730Z,17.52
2022-09-06T22:56:17.696Z,17.55
2022-09-06T22:58:44.896Z,17.58
2022-09-06T23:01:14.013Z,17.58
2022-09-06T23:03:42.179Z,17.50
2022-09-06T23:06:09.888Z,17.61
2022-09-06T23:08:38.195Z,17.50
2022-09-06T23:11:13.307Z,17.41
2022-09-06T23:13:44.081Z,17.36
2022-09-06T23:16:13.351Z,17.29
2022-09-06T23:18:40.682Z,17.31
2022-09-06T23:21:10.186Z,17.35
2022-09-06T23:23:38.349Z,17.27
2022-09-06T23:26:16.777Z,17.31
2022-09-06T23:28:43.724Z,17.34
2022-09-06T23:31:13.801Z,17.29
2022-09-06T23:33:41.831Z,17.41
2022-09-06T23:36:11.835Z,17.33
2022-09-06T23:38:40.555Z,17.32
2022-09-06T23:41:09.867Z,17.16
2022-09-06T23:43:40.778Z,17.18
2022-09-06T23:46:08.761Z,17.03
2022-09-06T23:48:36.003Z,16.94
2022-09-06T23:51:06.777Z,16.93
2022-09-06T23:53:33.987Z,16.98
2022-09-06T23:56:01.530Z,17.03
2022-09-06T23:58:31.714Z,16.99
